Time;durP1;ratioP1;P1;durP2;ratioP2;P2;SDS_P1;SDS_P2;PMS_P1;PMS_P2;Temp;Humidity;BMP_temperature;BMP_pressure;BME280_temperature;BME280_humidity;BME280_pressure;Samples;Min_cycle;Max_cycle;Signal;HPM_P1;HPM_P2
2021/08/01 00:00:22;;;;;;;9.70;1.70;;;15.30;99.90;;;;;;2099823;28;20424;-66
2021/08/01 00:01:24;;;;;;;17.88;2.00;;;15.30;99.90;;;;;;2094200;28;20124;-66
2021/08/01 00:02:24;;;;;;;9.18;1.70;;;15.30;99.90;;;;;;2085149;28;20025;-67
2021/08/01 00:03:25;;;;;;;8.90;1.50;;;15.30;99.90;;;;;;2086045;28;20033;-66
2021/08/01 00:04:26;;;;;;;8.93;1.58;;;15.30;99.90;;;;;;2085018;28;20018;-66
2021/08/01 00:05:26;;;;;;;11.27;1.80;;;15.30;99.90;;;;;;2087386;28;20021;-65
2021/08/01 00:06:27;;;;;;;13.65;2.10;;;15.40;99.90;;;;;;2086602;28;20096;-66
2021/08/01 00:07:28;;;;;;;10.98;1.73;;;15.40;99.90;;;;;;2087588;28;20024;-66
2021/08/01 00:08:29;;;;;;;11.43;1.92;;;15.50;99.90;;;;;;2086634;28;20804;-66
2021/08/01 00:09:29;;;;;;;15.15;2.67;;;15.60;99.90;;;;;;2087345;28;20021;-66
2021/08/01 00:10:30;;;;;;;5.97;1.40;;;15.60;99.90;;;;;;2090050;28;20028;-66
2021/08/01 00:11:31;;;;;;;6.47;1.42;;;15.50;99.90;;;;;;2088923;28;20048;-66
2021/08/01 00:12:32;;;;;;;8.27;1.60;;;15.50;99.90;;;;;;2086537;28;20024;-66
2021/08/01 00:13:32;;;;;;;7.95;1.65;;;15.60;99.90;;;;;;2084484;28;20057;-66
2021/08/01 00:14:33;;;;;;;10.40;2.05;;;15.60;99.90;;;;;;2083105;28;20017;-66
2021/08/01 00:15:34;;;;;;;8.38;1.50;;;15.60;99.90;;;;;;2083102;28;20029;-65
2021/08/01 00:16:34;;;;;;;11.75;1.55;;;15.60;99.90;;;;;;2079610;28;20158;-67
2021/08/01 00:17:35;;;;;;;8.38;1.65;;;15.60;99.90;;;;;;2085356;28;20021;-67
2021/08/01 00:18:36;;;;;;;8.90;1.73;;;15.60;99.90;;;;;;2083647;28;20041;-67
2021/08/01 00:19:37;;;;;;;5.95;1.30;;;15.50;99.90;;;;;;2087973;28;20025;-66
2021/08/01 00:20:37;;;;;;;8.75;2.05;;;15.50;99.90;;;;;;2085471;28;20019;-66
2021/08/01 00:21:38;;;;;;;8.35;1.50;;;15.60;99.90;;;;;;2082713;28;20091;-66
2021/08/01 00:22:39;;;;;;;13.45;1.70;;;15.60;99.90;;;;;;2089518;28;20021;-66
2021/08/01 00:23:40;;;;;;;8.13;1.55;;;15.60;99.90;;;;;;2085830;28;20020;-66
2021/08/01 00:24:40;;;;;;;11.00;1.90;;;15.60;99.90;;;;;;2081408;28;20029;-66
2021/08/01 00:25:41;;;;;;;9.05;1.67;;;15.60;99.90;;;;;;2086862;28;20056;-66
2021/08/01 00:26:42;;;;;;;8.40;1.50;;;15.60;99.90;;;;;;2088924;28;20402;-66
2021/08/01 00:27:43;;;;;;;10.27;1.65;;;15.60;99.90;;;;;;2088804;28;20097;-66
2021/08/01 00:28:44;;;;;;;10.18;1.60;;;15.60;99.90;;;;;;2085580;28;20104;-66
2021/08/01 00:29:44;;;;;;;7.82;1.60;;;15.50;99.90;;;;;;2079100;28;20030;-66
2021/08/01 00:30:45;;;;;;;9.82;2.03;;;15.50;99.90;;;;;;2084311;28;20026;-66
2021/08/01 00:31:46;;;;;;;12.40;1.55;;;15.60;99.90;;;;;;2088282;28;20033;-66
2021/08/01 00:32:46;;;;;;;8.20;1.70;;;15.60;99.90;;;;;;2084340;28;20033;-66
2021/08/01 00:33:47;;;;;;;14.70;2.00;;;15.60;99.90;;;;;;2086092;28;20571;-66
2021/08/01 00:34:48;;;;;;;7.65;1.60;;;15.70;99.90;;;;;;2089986;28;20029;-66
2021/08/01 00:35:48;;;;;;;8.20;1.98;;;15.70;99.90;;;;;;2085158;28;20040;-66
2021/08/01 00:36:49;;;;;;;9.43;1.27;;;15.70;99.90;;;;;;2089525;28;20727;-66
2021/08/01 00:37:49;;;;;;;10.20;1.30;;;15.70;99.90;;;;;;2085493;28;20021;-66
2021/08/01 00:38:50;;;;;;;7.20;1.38;;;15.70;99.90;;;;;;2085281;28;20710;-65
2021/08/01 00:39:51;;;;;;;3.90;1.48;;;15.70;99.90;;;;;;2083022;28;20018;-66
2021/08/01 00:40:52;;;;;;;6.40;1.70;;;15.70;99.90;;;;;;2084779;28;20109;-66
2021/08/01 00:41:52;;;;;;;10.75;1.88;;;15.70;99.90;;;;;;2089118;28;20028;-66
2021/08/01 00:42:53;;;;;;;10.48;1.98;;;15.70;99.90;;;;;;2084470;28;20049;-66
2021/08/01 00:43:54;;;;;;;10.48;1.77;;;15.70;99.90;;;;;;2086354;28;20043;-66
2021/08/01 00:44:54;;;;;;;8.05;1.80;;;15.70;99.90;;;;;;2084830;28;20102;-67
2021/08/01 00:45:55;;;;;;;8.40;1.55;;;15.70;99.90;;;;;;2085709;28;20082;-66
2021/08/01 00:46:56;;;;;;;9.02;1.45;;;15.70;99.90;;;;;;2089917;28;20025;-66
2021/08/01 00:47:57;;;;;;;14.27;2.03;;;15.70;99.90;;;;;;2084495;28;20045;-66
2021/08/01 00:48:59;;;;;;;7.93;1.55;;;15.80;99.90;;;;;;2086873;28;20029;-66
2021/08/01 00:50:05;;;;;;;5.07;1.75;;;15.80;99.90;;;;;;2080537;28;20022;-66
2021/08/01 00:51:07;;;;;;;11.25;2.30;;;15.90;99.90;;;;;;2086024;28;20017;-66
2021/08/01 00:52:08;;;;;;;10.57;1.60;;;15.90;99.90;;;;;;2089113;28;20029;-66
2021/08/01 00:53:10;;;;;;;6.25;1.50;;;15.90;99.90;;;;;;2080617;28;20064;-66
2021/08/01 00:54:10;;;;;;;;;;;15.90;99.90;;;;;;2083635;28;20022;-66
2021/08/01 00:55:12;;;;;;;8.93;1.42;;;15.90;99.90;;;;;;2086744;28;19912;-66
2021/08/01 00:56:14;;;;;;;7.43;1.40;;;15.90;99.90;;;;;;2082785;28;20030;-66
2021/08/01 00:57:15;;;;;;;6.25;1.30;;;15.90;99.90;;;;;;2088682;28;20033;-66
2021/08/01 00:58:16;;;;;;;6.70;1.27;;;15.90;99.90;;;;;;2089056;28;20043;-66
2021/08/01 00:59:17;;;;;;;9.50;1.50;;;15.90;99.90;;;;;;2085756;28;20030;-66
2021/08/01 01:01:34;;;;;;;11.32;1.60;;;15.90;99.90;;;;;;2085291;28;20377;-67
2021/08/01 01:02:37;;;;;;;6.88;1.50;;;15.90;99.90;;;;;;2084460;28;20064;-66
2021/08/01 01:03:59;;;;;;;14.18;1.90;;;15.90;99.90;;;;;;2083112;28;20459;-66
2021/08/01 01:05:08;;;;;;;5.00;1.58;;;15.90;99.90;;;;;;2084058;28;20100;-66
2021/08/01 01:06:42;;;;;;;9.35;1.83;;;15.90;99.90;;;;;;2089057;28;20039;-66
2021/08/01 01:08:14;;;;;;;7.30;1.85;;;15.90;99.90;;;;;;2088511;28;20025;-66
2021/08/01 01:09:32;;;;;;;11.23;2.13;;;15.90;99.90;;;;;;2086767;28;20045;-66
2021/08/01 01:10:41;;;;;;;11.20;2.13;;;15.90;99.90;;;;;;2084412;28;20021;-66
2021/08/01 01:11:43;;;;;;;14.50;1.80;;;15.90;99.90;;;;;;2088494;28;20028;-66
2021/08/01 01:12:55;;;;;;;8.35;1.90;;;15.90;99.90;;;;;;2088717;28;20460;-66
2021/08/01 01:13:58;;;;;;;10.60;2.50;;;15.90;99.90;;;;;;2089160;28;20060;-66
2021/08/01 01:15:02;;;;;;;12.70;1.85;;;15.90;99.90;;;;;;2080550;28;20137;-66
2021/08/01 01:16:03;;;;;;;12.65;1.73;;;15.90;99.90;;;;;;2080638;28;20022;-66
2021/08/01 01:17:06;;;;;;;12.77;2.45;;;15.80;99.90;;;;;;2081203;28;20052;-66
2021/08/01 01:18:08;;;;;;;10.77;2.22;;;15.80;99.90;;;;;;2082970;28;20036;-66
2021/08/01 01:19:13;;;;;;;;;;;15.80;99.90;;;;;;2088890;28;20582;-66
2021/08/01 01:20:29;;;;;;;10.35;1.77;;;15.80;99.90;;;;;;2089424;28;19904;-66
2021/08/01 01:21:39;;;;;;;6.63;1.55;;;15.80;99.90;;;;;;2089375;28;20147;-66
2021/08/01 01:23:12;;;;;;;6.93;1.58;;;15.80;99.90;;;;;;2089287;28;20021;-66
2021/08/01 01:24:30;;;;;;;5.63;1.27;;;15.80;99.90;;;;;;2088404;28;20116;-67
2021/08/01 01:25:40;;;;;;;6.80;1.48;;;15.80;99.90;;;;;;2088369;28;20021;-66
2021/08/01 01:26:59;;;;;;;9.70;1.73;;;15.70;99.90;;;;;;2089267;28;20087;-66
2021/08/01 01:28:24;;;;;;;8.90;1.60;;;15.70;99.90;;;;;;2083863;28;20021;-66
2021/08/01 01:29:38;;;;;;;6.38;1.70;;;15.70;99.90;;;;;;2080980;28;20057;-66
2021/08/01 01:30:48;;;;;;;8.15;1.48;;;15.70;99.90;;;;;;2080607;28;20111;-66
2021/08/01 01:31:49;;;;;;;11.02;1.30;;;15.60;99.90;;;;;;2087064;28;20578;-66
2021/08/01 01:33:01;;;;;;;6.85;1.45;;;15.60;99.90;;;;;;2087685;28;20131;-66
2021/08/01 01:34:18;;;;;;;8.20;1.70;;;15.60;99.90;;;;;;2081219;28;20056;-66
2021/08/01 01:35:20;;;;;;;5.28;1.50;;;15.60;99.90;;;;;;2087766;28;20021;-66
2021/08/01 01:36:26;;;;;;;10.35;1.80;;;15.60;99.90;;;;;;2083997;28;20072;-67
2021/08/01 01:37:28;;;;;;;12.68;1.52;;;15.60;99.90;;;;;;2085984;28;20083;-67
2021/08/01 01:38:30;;;;;;;9.98;1.83;;;15.60;99.90;;;;;;2086566;28;20017;-67
2021/08/01 01:39:31;;;;;;;7.45;1.83;;;15.70;99.90;;;;;;2089207;28;20039;-67
2021/08/01 01:40:36;;;;;;;10.65;1.50;;;15.80;99.90;;;;;;2081140;28;20025;-66
2021/08/01 01:41:40;;;;;;;10.07;2.15;;;15.80;99.90;;;;;;2082850;28;20021;-66
2021/08/01 01:42:42;;;;;;;7.55;1.42;;;15.80;99.90;;;;;;2087135;28;20025;-67
2021/08/01 01:43:44;;;;;;;13.23;2.13;;;15.80;99.90;;;;;;2082626;28;20515;-67
2021/08/01 01:44:45;;;;;;;;;;;15.80;99.90;;;;;;2081867;28;20021;-66
2021/08/01 01:45:46;;;;;;;6.85;1.83;;;15.80;99.90;;;;;;2089303;28;19904;-66
2021/08/01 01:46:47;;;;;;;9.55;1.83;;;15.70;99.90;;;;;;2084246;28;23656;-66
2021/08/01 01:47:52;;;;;;;11.73;1.70;;;15.70;99.90;;;;;;2083309;28;20061;-67
2021/08/01 01:48:55;;;;;;;7.90;1.88;;;15.80;99.90;;;;;;2087806;28;20025;-66
2021/08/01 01:49:58;;;;;;;8.60;1.70;;;15.70;99.90;;;;;;2086836;28;20025;-66
2021/08/01 01:50:59;;;;;;;9.18;1.77;;;15.70;99.90;;;;;;2081206;28;20022;-67
2021/08/01 01:52:00;;;;;;;11.67;1.73;;;15.70;99.90;;;;;;2081024;28;20499;-66
2021/08/01 01:53:01;;;;;;;10.18;2.53;;;15.70;99.90;;;;;;2081167;28;20272;-67
2021/08/01 01:54:03;;;;;;;8.60;1.52;;;15.60;99.90;;;;;;2087855;28;20024;-66
2021/08/01 01:55:05;;;;;;;7.72;1.67;;;15.70;99.90;;;;;;2089077;28;20035;-66
2021/08/01 01:56:08;;;;;;;9.98;1.92;;;15.70;99.90;;;;;;2085492;28;20503;-66
2021/08/01 01:57:09;;;;;;;9.88;2.10;;;15.60;99.90;;;;;;2086525;28;20020;-66
2021/08/01 01:58:11;;;;;;;6.88;1.65;;;15.70;99.90;;;;;;2089048;28;20075;-66
2021/08/01 01:59:12;;;;;;;6.40;1.52;;;15.60;99.90;;;;;;2088882;28;20031;-66
2021/08/01 02:00:14;;;;;;;8.00;1.65;;;15.60;99.90;;;;;;2088828;28;20013;-66
2021/08/01 02:01:17;;;;;;;9.32;2.25;;;15.60;99.90;;;;;;2086783;28;20120;-67
2021/08/01 02:02:17;;;;;;;6.78;1.50;;;15.50;99.90;;;;;;2085172;28;20417;-66
2021/08/01 02:03:18;;;;;;;7.22;2.03;;;15.50;99.90;;;;;;2089087;28;20118;-66
2021/08/01 02:04:19;;;;;;;8.65;2.05;;;15.50;99.90;;;;;;2080812;28;20062;-66
2021/08/01 02:05:19;;;;;;;6.82;1.55;;;15.50;99.90;;;;;;2080061;28;20033;-66
2021/08/01 02:06:21;;;;;;;11.15;1.70;;;15.50;99.90;;;;;;2078590;28;20056;-66
2021/08/01 02:07:21;;;;;;;13.25;2.00;;;15.50;99.90;;;;;;2085720;28;20056;-66
2021/08/01 02:08:22;;;;;;;7.32;2.35;;;15.50;99.90;;;;;;2081927;28;20024;-66
2021/08/01 02:09:51;;;;;;;6.53;2.05;;;15.50;99.90;;;;;;2080539;28;20544;-67
2021/08/01 02:10:58;;;;;;;8.13;1.90;;;15.50;99.90;;;;;;2082031;28;20024;-66
2021/08/01 02:12:41;;;;;;;9.27;1.75;;;15.60;99.90;;;;;;2082182;28;20117;-68
2021/08/01 02:14:00;;;;;;;9.52;1.70;;;15.60;99.90;;;;;;2079689;28;20132;-66
2021/08/01 02:15:07;;;;;;;9.50;2.00;;;15.60;99.90;;;;;;2079376;28;20122;-66
2021/08/01 02:16:09;;;;;;;9.20;1.85;;;15.60;99.90;;;;;;2080046;28;20484;-66
2021/08/01 02:17:13;;;;;;;9.23;1.70;;;15.60;99.90;;;;;;2079401;28;20040;-66
2021/08/01 02:18:36;;;;;;;9.95;1.98;;;15.60;99.90;;;;;;2086773;28;20489;-66
2021/08/01 02:19:41;;;;;;;8.15;1.80;;;15.70;99.90;;;;;;2083891;28;20033;-65
2021/08/01 02:20:47;;;;;;;11.07;1.85;;;15.60;99.90;;;;;;2078880;28;20039;-66
2021/08/01 02:21:49;;;;;;;8.68;2.00;;;15.70;99.90;;;;;;2086753;28;20053;-66
2021/08/01 02:22:51;;;;;;;9.27;2.67;;;15.70;99.90;;;;;;2086211;28;20036;-67
2021/08/01 02:23:53;;;;;;;10.48;2.03;;;15.70;99.90;;;;;;2088910;28;20021;-67
2021/08/01 02:24:55;;;;;;;6.78;1.73;;;15.70;99.90;;;;;;2084648;28;20312;-66
2021/08/01 02:25:57;;;;;;;10.50;2.40;;;15.80;99.90;;;;;;2080775;28;20025;-67
2021/08/01 02:26:59;;;;;;;4.00;1.40;;;15.80;99.90;;;;;;2084384;28;20029;-67
2021/08/01 02:28:03;;;;;;;;;;;15.90;99.90;;;;;;2088500;28;20017;-66
2021/08/01 02:29:05;;;;;;;8.68;1.92;;;15.90;99.90;;;;;;2088910;28;19931;-66
2021/08/01 02:30:06;;;;;;;10.40;1.90;;;15.90;99.90;;;;;;2086931;28;20021;-66
2021/08/01 02:31:08;;;;;;;16.67;2.75;;;15.80;99.90;;;;;;2088946;28;20052;-66
2021/08/01 02:32:09;;;;;;;6.65;1.77;;;15.90;99.90;;;;;;2088822;28;20025;-66
2021/08/01 02:33:11;;;;;;;7.93;1.88;;;15.90;99.90;;;;;;2087286;28;20091;-66
2021/08/01 02:34:12;;;;;;;20.65;3.50;;;15.90;99.90;;;;;;2082331;28;20047;-66
2021/08/01 02:35:13;;;;;;;11.50;1.98;;;15.80;99.90;;;;;;2086374;28;20061;-66
2021/08/01 02:36:17;;;;;;;11.70;1.83;;;15.80;99.90;;;;;;2085114;28;20112;-66
2021/08/01 02:37:18;;;;;;;13.18;2.08;;;15.80;99.90;;;;;;2080668;28;20017;-66
2021/08/01 02:38:19;;;;;;;8.40;1.80;;;15.80;99.90;;;;;;2081529;28;20055;-66
2021/08/01 02:39:22;;;;;;;12.40;2.03;;;15.80;99.90;;;;;;2071947;28;20029;-66
2021/08/01 02:40:27;;;;;;;9.07;2.08;;;15.80;99.90;;;;;;2083023;28;20025;-67
2021/08/01 02:41:54;;;;;;;6.97;1.88;;;15.80;99.90;;;;;;2086718;28;20467;-66
2021/08/01 02:42:57;;;;;;;12.85;1.95;;;15.80;99.90;;;;;;2080437;28;20113;-66
2021/08/01 02:44:05;;;;;;;11.57;2.35;;;15.80;99.90;;;;;;2078524;28;20377;-66
2021/08/01 02:45:07;;;;;;;4.57;1.92;;;15.80;99.90;;;;;;2080821;28;20047;-67
2021/08/01 02:46:09;;;;;;;11.67;2.60;;;15.90;99.90;;;;;;2087313;28;20601;-66
2021/08/01 02:47:11;;;;;;;;;;;15.90;99.90;;;;;;2080648;28;20260;-66
2021/08/01 02:48:14;;;;;;;11.00;2.40;;;15.90;99.90;;;;;;2079212;28;19940;-67
2021/08/01 02:49:18;;;;;;;7.97;1.70;;;16.00;99.90;;;;;;2080203;28;20033;-66
2021/08/01 02:50:22;;;;;;;10.05;1.90;;;16.00;99.90;;;;;;2083666;28;20096;-67
2021/08/01 02:51:23;;;;;;;12.43;2.33;;;16.00;99.90;;;;;;2081605;28;20497;-68
2021/08/01 02:52:31;;;;;;;13.07;1.90;;;16.00;99.90;;;;;;2087447;28;20024;-66
2021/08/01 02:53:37;;;;;;;10.25;2.17;;;16.00;99.90;;;;;;2086507;28;20504;-67
2021/08/01 02:54:40;;;;;;;6.55;1.58;;;16.00;99.90;;;;;;2080482;28;20071;-66
2021/08/01 02:55:43;;;;;;;10.70;2.25;;;16.00;99.90;;;;;;2077002;28;20041;-66
2021/08/01 02:56:45;;;;;;;10.77;2.10;;;16.00;99.90;;;;;;2086612;28;20017;-66
2021/08/01 02:57:48;;;;;;;16.50;1.90;;;16.00;99.90;;;;;;2080688;28;20026;-66
2021/08/01 02:58:51;;;;;;;10.38;1.98;;;16.00;99.90;;;;;;2080378;28;20024;-66
2021/08/01 02:59:53;;;;;;;12.38;2.15;;;15.90;99.90;;;;;;2079761;28;20735;-66
2021/08/01 03:00:55;;;;;;;12.32;1.75;;;15.90;99.90;;;;;;2081425;28;20433;-66
2021/08/01 03:01:57;;;;;;;5.28;1.90;;;15.90;99.90;;;;;;2087533;28;20059;-66
2021/08/01 03:02:59;;;;;;;9.32;1.77;;;15.80;99.90;;;;;;2085742;28;20104;-66
2021/08/01 03:04:00;;;;;;;9.98;2.10;;;15.90;99.90;;;;;;2085030;28;20040;-66
2021/08/01 03:05:04;;;;;;;7.82;1.70;;;15.90;99.90;;;;;;2080468;28;20029;-66
2021/08/01 03:06:07;;;;;;;9.52;1.92;;;15.90;99.90;;;;;;2080351;28;20040;-66
2021/08/01 03:07:10;;;;;;;15.13;2.55;;;15.90;99.90;;;;;;2082933;28;20021;-66
2021/08/01 03:08:14;;;;;;;8.73;2.20;;;15.90;99.90;;;;;;2085972;28;20079;-67
2021/08/01 03:09:15;;;;;;;9.20;2.30;;;15.80;99.90;;;;;;2089076;28;20031;-66
2021/08/01 03:10:16;;;;;;;5.10;1.45;;;15.90;99.90;;;;;;2080358;28;20018;-66
2021/08/01 03:11:21;;;;;;;8.77;2.00;;;15.90;99.90;;;;;;2088087;28;20017;-66
2021/08/01 03:12:21;;;;;;;7.55;1.67;;;15.80;99.90;;;;;;2084813;28;20036;-66
2021/08/01 03:13:23;;;;;;;12.20;2.17;;;15.80;99.90;;;;;;2085500;28;20025;-66
2021/08/01 03:14:23;;;;;;;6.43;1.58;;;15.90;99.90;;;;;;2085087;28;20021;-66
2021/08/01 03:15:24;;;;;;;8.65;1.90;;;15.90;99.90;;;;;;2088815;28;20037;-66
2021/08/01 03:16:25;;;;;;;8.43;2.58;;;15.80;99.90;;;;;;2082413;28;20063;-66
2021/08/01 03:17:26;;;;;;;17.02;2.45;;;15.80;99.90;;;;;;2080108;28;20478;-66
2021/08/01 03:18:26;;;;;;;12.02;2.70;;;15.80;99.90;;;;;;2080699;28;20377;-67
2021/08/01 03:19:27;;;;;;;12.27;2.38;;;15.80;99.90;;;;;;2079403;28;20532;-66
2021/08/01 03:20:28;;;;;;;11.85;2.05;;;15.80;99.90;;;;;;2071805;28;20052;-66
2021/08/01 03:21:28;;;;;;;7.05;1.77;;;15.80;99.90;;;;;;2079612;28;20028;-66
2021/08/01 03:22:29;;;;;;;8.10;2.38;;;15.70;99.90;;;;;;2084293;28;20021;-66
2021/08/01 03:23:30;;;;;;;12.05;2.25;;;15.70;99.90;;;;;;2078947;28;20021;-66
2021/08/01 03:24:30;;;;;;;11.07;2.22;;;15.70;99.90;;;;;;2080538;28;20022;-66
2021/08/01 03:25:34;;;;;;;8.25;2.13;;;15.70;99.90;;;;;;2082430;28;20573;-66
2021/08/01 03:26:35;;;;;;;12.35;1.85;;;15.70;99.90;;;;;;2074579;28;20546;-66
2021/08/01 03:27:35;;;;;;;10.65;2.58;;;15.60;99.90;;;;;;2084552;28;20032;-66
2021/08/01 03:28:36;;;;;;;6.75;1.92;;;15.70;99.90;;;;;;2088464;28;20021;-66
2021/08/01 03:29:37;;;;;;;13.80;2.33;;;15.70;99.90;;;;;;2087587;28;20595;-66
2021/08/01 03:30:37;;;;;;;9.43;1.92;;;15.70;99.90;;;;;;2086221;28;20017;-67
2021/08/01 03:31:38;;;;;;;10.27;2.15;;;15.70;99.90;;;;;;2079928;28;20600;-66
2021/08/01 03:32:38;;;;;;;6.32;1.83;;;15.70;99.90;;;;;;2080679;28;20022;-67
2021/08/01 03:33:39;;;;;;;6.43;1.75;;;15.70;99.90;;;;;;2088273;28;20055;-66
2021/08/01 03:34:40;;;;;;;6.50;1.70;;;15.70;99.90;;;;;;2088580;28;20574;-66
2021/08/01 03:35:40;;;;;;;10.35;1.98;;;15.70;99.90;;;;;;2080371;28;20025;-66
2021/08/01 03:36:41;;;;;;;5.80;1.40;;;15.70;99.90;;;;;;2081266;28;20021;-66
2021/08/01 03:37:42;;;;;;;8.38;1.80;;;15.70;99.90;;;;;;2080365;28;20084;-66
2021/08/01 03:38:42;;;;;;;14.80;2.08;;;15.70;99.90;;;;;;2080084;28;20061;-66
2021/08/01 03:39:43;;;;;;;9.75;2.00;;;15.70;99.90;;;;;;2080200;28;20025;-66
2021/08/01 03:40:44;;;;;;;10.70;2.65;;;15.70;99.90;;;;;;2080501;28;20018;-66
2021/08/01 03:41:45;;;;;;;12.18;2.13;;;15.70;99.90;;;;;;2084205;28;20033;-66
2021/08/01 03:42:46;;;;;;;8.40;2.80;;;15.70;99.90;;;;;;2086250;28;20030;-66
2021/08/01 03:43:46;;;;;;;8.87;2.57;;;15.70;99.90;;;;;;2079444;28;20397;-66
2021/08/01 03:44:47;;;;;;;7.35;2.47;;;15.70;99.90;;;;;;2086521;28;20275;-66
2021/08/01 03:45:48;;;;;;;12.43;2.35;;;15.70;99.90;;;;;;2080493;28;20021;-66
2021/08/01 03:46:48;;;;;;;17.30;3.15;;;15.70;99.90;;;;;;2084103;28;20539;-66
2021/08/01 03:47:49;;;;;;;12.48;2.92;;;15.70;99.90;;;;;;2088807;28;20622;-66
2021/08/01 03:48:50;;;;;;;8.90;2.45;;;15.70;99.90;;;;;;2082883;28;20152;-66
2021/08/01 03:49:50;;;;;;;11.90;2.08;;;15.70;99.90;;;;;;2082092;28;20425;-67
2021/08/01 03:50:52;;;;;;;11.13;2.45;;;15.70;99.90;;;;;;2085463;28;21011;-67
2021/08/01 03:51:53;;;;;;;;;;;15.60;99.90;;;;;;2084968;28;20025;-66
2021/08/01 03:52:54;;;;;;;8.68;2.50;;;15.60;99.90;;;;;;2087677;28;20309;-66
2021/08/01 03:53:54;;;;;;;8.57;2.78;;;15.70;99.90;;;;;;2080983;28;20575;-66
2021/08/01 03:54:55;;;;;;;9.32;2.20;;;15.60;99.90;;;;;;2081073;28;20017;-66
2021/08/01 03:55:56;;;;;;;9.98;2.72;;;15.60;99.90;;;;;;2081958;28;20040;-66
2021/08/01 03:56:56;;;;;;;11.77;2.75;;;15.50;99.90;;;;;;2081621;28;20478;-66
2021/08/01 03:57:57;;;;;;;12.68;2.40;;;15.50;99.90;;;;;;2081920;28;20033;-66
2021/08/01 03:58:58;;;;;;;11.43;2.80;;;15.50;99.90;;;;;;2084253;28;20070;-66
2021/08/01 03:59:58;;;;;;;12.27;2.63;;;15.40;99.90;;;;;;2089242;28;20033;-66
2021/08/01 04:01:02;;;;;;;10.77;2.65;;;15.40;99.90;;;;;;2087113;28;20083;-66
2021/08/01 04:02:03;;;;;;;7.47;2.15;;;15.40;99.90;;;;;;2084450;28;20087;-66
2021/08/01 04:03:04;;;;;;;14.00;2.50;;;15.40;99.90;;;;;;2090279;28;20041;-65
2021/08/01 04:04:05;;;;;;;7.20;2.58;;;15.40;99.90;;;;;;2089609;28;20033;-66
2021/08/01 04:05:06;;;;;;;6.30;2.60;;;15.40;99.90;;;;;;2089240;28;20040;-66
2021/08/01 04:06:07;;;;;;;12.43;2.47;;;15.40;99.90;;;;;;2089450;28;20025;-66
2021/08/01 04:07:08;;;;;;;9.20;2.60;;;15.40;99.90;;;;;;2085823;28;20053;-66
2021/08/01 04:08:09;;;;;;;11.00;2.72;;;15.30;99.90;;;;;;2081802;28;20053;-68
2021/08/01 04:09:09;;;;;;;10.88;2.63;;;15.30;99.90;;;;;;2084561;28;20543;-66
2021/08/01 04:10:10;;;;;;;8.52;2.20;;;15.30;99.90;;;;;;2080283;28;20037;-66
2021/08/01 04:11:11;;;;;;;11.57;2.42;;;15.30;99.90;;;;;;2089216;28;20053;-66
2021/08/01 04:12:11;;;;;;;10.63;3.05;;;15.30;99.90;;;;;;2084671;28;20056;-67
2021/08/01 04:13:12;;;;;;;7.43;2.28;;;15.30;99.90;;;;;;2080264;28;20053;-66
2021/08/01 04:14:13;;;;;;;6.72;2.72;;;15.40;99.90;;;;;;2085157;28;20021;-66
2021/08/01 04:15:15;;;;;;;14.23;2.70;;;15.40;99.90;;;;;;2089880;28;20028;-66
2021/08/01 04:16:16;;;;;;;5.10;2.30;;;15.40;99.90;;;;;;2085408;28;20552;-66
2021/08/01 04:17:18;;;;;;;9.77;3.13;;;15.40;99.90;;;;;;2082874;28;20036;-66
2021/08/01 04:18:19;;;;;;;10.80;2.90;;;15.40;99.90;;;;;;2088405;28;20027;-66
2021/08/01 04:19:19;;;;;;;12.10;2.70;;;15.40;99.90;;;;;;2087024;28;20651;-66
2021/08/01 04:20:20;;;;;;;7.68;2.60;;;15.40;99.90;;;;;;2090039;28;20167;-66
2021/08/01 04:21:21;;;;;;;8.80;3.42;;;15.40;99.90;;;;;;2089593;28;20024;-66
2021/08/01 04:22:21;;;;;;;8.43;2.42;;;15.50;99.90;;;;;;2089867;28;20112;-66
2021/08/01 04:23:22;;;;;;;10.52;2.85;;;15.40;99.90;;;;;;2089626;28;20044;-66
2021/08/01 04:24:23;;;;;;;7.32;2.60;;;15.40;99.90;;;;;;2089529;28;20021;-66
2021/08/01 04:25:23;;;;;;;5.20;2.78;;;15.40;99.90;;;;;;2090073;28;20016;-66
2021/08/01 04:26:25;;;;;;;6.68;2.45;;;15.50;99.90;;;;;;2083983;28;20029;-66
2021/08/01 04:27:25;;;;;;;6.82;2.40;;;15.40;99.90;;;;;;2089002;28;20013;-65
2021/08/01 04:28:26;;;;;;;7.00;2.42;;;15.50;99.90;;;;;;2087782;28;20524;-67
2021/08/01 04:29:27;;;;;;;7.20;2.63;;;15.50;99.90;;;;;;2087986;28;20044;-66
2021/08/01 04:30:27;;;;;;;7.85;2.92;;;15.50;99.90;;;;;;2081032;28;20018;-66
2021/08/01 04:31:28;;;;;;;8.00;2.40;;;15.50;99.90;;;;;;2081150;28;20014;-66
2021/08/01 04:32:29;;;;;;;6.93;2.25;;;15.50;99.90;;;;;;2081561;28;20022;-66
2021/08/01 04:33:29;;;;;;;10.45;2.53;;;15.50;99.90;;;;;;2087649;28;20097;-66
2021/08/01 04:34:30;;;;;;;10.32;2.78;;;15.50;99.90;;;;;;2092519;28;20020;-66
2021/08/01 04:35:31;;;;;;;7.80;2.33;;;15.50;99.90;;;;;;2082563;28;20112;-66
2021/08/01 04:36:31;;;;;;;9.50;2.97;;;15.50;99.90;;;;;;2088457;28;20029;-66
2021/08/01 04:37:32;;;;;;;11.07;2.80;;;15.50;99.90;;;;;;2088817;28;20014;-66
2021/08/01 04:38:33;;;;;;;7.45;2.40;;;15.50;99.90;;;;;;2089200;28;20036;-66
2021/08/01 04:39:33;;;;;;;9.25;2.92;;;15.50;99.90;;;;;;2088962;28;20052;-66
2021/08/01 04:40:34;;;;;;;7.85;2.50;;;15.40;99.90;;;;;;2080280;28;20535;-66
2021/08/01 04:41:34;;;;;;;10.45;2.72;;;15.40;99.90;;;;;;2080455;28;21292;-66
2021/08/01 04:42:35;;;;;;;8.55;2.92;;;15.40;99.90;;;;;;2088911;28;20034;-66
2021/08/01 04:43:36;;;;;;;9.73;3.00;;;15.40;99.90;;;;;;2089135;28;20017;-66
2021/08/01 04:44:36;;;;;;;9.70;2.97;;;15.40;99.90;;;;;;2088903;28;20063;-66
2021/08/01 04:45:37;;;;;;;10.68;2.40;;;15.30;99.90;;;;;;2089042;28;20024;-66
2021/08/01 04:46:39;;;;;;;9.50;2.95;;;15.30;99.90;;;;;;2089673;28;20028;-66
2021/08/01 04:47:40;;;;;;;;;;;15.30;99.90;;;;;;2086869;28;20017;-66
2021/08/01 04:48:40;;;;;;;10.13;2.72;;;15.30;99.90;;;;;;2085962;28;20012;-66
2021/08/01 04:49:42;;;;;;;9.73;2.80;;;15.30;99.90;;;;;;2087851;28;20021;-66
2021/08/01 04:50:43;;;;;;;17.10;3.53;;;15.20;99.90;;;;;;2081668;28;20093;-66
2021/08/01 04:51:44;;;;;;;10.85;2.80;;;15.20;99.90;;;;;;2081079;28;20048;-66
2021/08/01 04:52:44;;;;;;;7.03;2.47;;;15.20;99.90;;;;;;2089139;28;20047;-66
2021/08/01 04:53:45;;;;;;;9.63;2.67;;;15.20;99.90;;;;;;2084520;28;20083;-66
2021/08/01 04:54:46;;;;;;;9.18;2.80;;;15.20;99.90;;;;;;2089632;28;20079;-66
2021/08/01 04:55:47;;;;;;;9.20;2.63;;;15.20;99.90;;;;;;2081122;28;20051;-66
2021/08/01 04:56:48;;;;;;;16.17;3.17;;;15.20;99.90;;;;;;2082536;28;20021;-66
2021/08/01 04:57:48;;;;;;;9.57;2.80;;;15.20;99.90;;;;;;2088990;28;20029;-66
2021/08/01 04:58:49;;;;;;;11.63;2.40;;;15.20;99.90;;;;;;2086583;28;20020;-66
2021/08/01 04:59:50;;;;;;;6.90;2.80;;;15.20;99.90;;;;;;2081623;28;20032;-66
2021/08/01 05:00:50;;;;;;;8.63;3.17;;;15.20;99.90;;;;;;2081242;28;20412;-66
2021/08/01 05:01:51;;;;;;;8.00;2.67;;;15.30;99.90;;;;;;2082393;28;20129;-66
2021/08/01 05:02:52;;;;;;;12.13;2.80;;;15.30;99.90;;;;;;2089880;28;20017;-66
2021/08/01 05:03:52;;;;;;;7.57;2.80;;;15.30;99.90;;;;;;2088820;28;20021;-66
2021/08/01 05:04:53;;;;;;;10.23;2.70;;;15.30;99.90;;;;;;2088872;28;20492;-66
2021/08/01 05:05:54;;;;;;;11.40;2.65;;;15.40;99.90;;;;;;2089142;28;20053;-66
2021/08/01 05:06:55;;;;;;;11.95;3.08;;;15.40;99.90;;;;;;2087414;28;20052;-66
2021/08/01 05:07:56;;;;;;;13.95;3.10;;;15.50;99.90;;;;;;2083321;28;20061;-66
2021/08/01 05:08:56;;;;;;;11.05;2.92;;;15.40;99.90;;;;;;2084464;28;20014;-66
2021/08/01 05:09:57;;;;;;;10.70;2.78;;;15.50;99.90;;;;;;2081044;28;20033;-66
2021/08/01 05:10:58;;;;;;;8.38;2.63;;;15.50;99.90;;;;;;2080343;28;20543;-66
2021/08/01 05:11:59;;;;;;;6.55;2.45;;;15.50;99.90;;;;;;2081973;28;20040;-66
2021/08/01 05:12:59;;;;;;;8.85;3.08;;;15.60;99.90;;;;;;2082798;28;20025;-66
2021/08/01 05:14:00;;;;;;;6.60;2.90;;;15.60;99.90;;;;;;2089379;28;20021;-66
2021/08/01 05:15:03;;;;;;;12.25;2.50;;;15.60;99.90;;;;;;2088619;28;20025;-66
2021/08/01 05:16:04;;;;;;;9.68;2.70;;;15.60;99.90;;;;;;2089436;28;20107;-66
2021/08/01 05:17:05;;;;;;;8.85;2.47;;;15.70;99.90;;;;;;2089694;28;20025;-66
2021/08/01 05:18:05;;;;;;;7.18;2.67;;;15.70;99.90;;;;;;2087483;28;20108;-66
2021/08/01 05:19:06;;;;;;;11.35;2.85;;;15.70;99.90;;;;;;2088828;28;20021;-66
2021/08/01 05:20:07;;;;;;;13.90;3.70;;;15.70;99.90;;;;;;2082108;28;20029;-66
2021/08/01 05:21:08;;;;;;;9.45;3.10;;;15.70;99.90;;;;;;2079693;28;20017;-66
2021/08/01 05:22:10;;;;;;;15.35;2.80;;;15.80;99.90;;;;;;2081777;28;20476;-67
2021/08/01 05:23:11;;;;;;;7.35;2.60;;;15.80;99.90;;;;;;2084711;28;20096;-66
2021/08/01 05:24:11;;;;;;;7.60;3.23;;;15.80;99.90;;;;;;2089149;28;20068;-67
2021/08/01 05:25:12;;;;;;;9.95;2.85;;;15.90;99.90;;;;;;2089022;28;20017;-66
2021/08/01 05:26:13;;;;;;;10.93;2.58;;;15.90;99.90;;;;;;2083354;28;20021;-66
2021/08/01 05:27:13;;;;;;;12.95;2.80;;;15.90;99.90;;;;;;2089370;28;20078;-66